createdAt,value
2019-01-26T00:01:08.801Z,55.45
2019-01-26T00:03:40.461Z,55.47
2019-01-26T00:06:12.223Z,55.47
2019-01-26T00:08:46.939Z,55.49
2019-01-26T00:11:22.065Z,55.55
2019-01-26T00:13:53.891Z,55.54
2019-01-26T00:16:25.660Z,55.49
2019-01-26T00:18:57.344Z,55.48
2019-01-26T00:21:29.034Z,55.50
2019-01-26T00:24:04.538Z,55.47
2019-01-26T00:26:36.491Z,55.48
2019-01-26T00:29:08.289Z,55.46
2019-01-26T00:31:39.924Z,55.45
2019-01-26T00:34:12.838Z,55.45
2019-01-26T00:36:44.490Z,55.42
2019-01-26T00:39:16.161Z,55.39
2019-01-26T00:41:53.751Z,55.27
2019-01-26T00:44:26.702Z,55.22
2019-01-26T00:46:59.939Z,55.17
2019-01-26T00:49:31.633Z,55.13
2019-01-26T00:52:03.300Z,55.09
2019-01-26T00:54:35.015Z,55.06
2019-01-26T00:57:06.780Z,54.99
2019-01-26T00:59:41.521Z,54.96
2019-01-26T01:02:15.175Z,54.95
2019-01-26T01:04:46.973Z,54.92
2019-01-26T01:07:18.596Z,54.88
2019-01-26T01:09:50.381Z,54.87
2019-01-26T01:12:23.006Z,54.77
2019-01-26T01:14:54.845Z,54.69
2019-01-26T01:17:28.106Z,54.66
2019-01-26T01:19:59.724Z,54.68
2019-01-26T01:22:31.412Z,54.68
2019-01-26T01:25:03.061Z,54.64
2019-01-26T01:27:34.721Z,54.67
2019-01-26T01:30:08.567Z,54.66
2019-01-26T01:32:40.287Z,54.67
2019-01-26T01:35:11.914Z,54.64
2019-01-26T01:37:43.679Z,54.67
2019-01-26T01:40:18.515Z,54.76
2019-01-26T01:42:50.228Z,54.84
2019-01-26T01:45:22.215Z,54.90
2019-01-26T01:47:54.011Z,54.97
2019-01-26T01:50:26.903Z,55.02
2019-01-26T01:53:06.321Z,55.02
2019-01-26T01:55:38.101Z,55.01
2019-01-26T01:58:09.919Z,54.99
2019-01-26T02:00:43.154Z,55.00
2019-01-26T02:03:15.030Z,55.03
2019-01-26T02:05:46.984Z,55.01
2019-01-26T02:08:22.618Z,54.99
2019-01-26T02:10:55.062Z,55.01
2019-01-26T02:13:33.011Z,55.00
2019-01-26T02:16:14.342Z,54.99
2019-01-26T02:19:04.128Z,55.02
2019-01-26T02:21:43.949Z,55.04
2019-01-26T02:24:21.155Z,55.01
2019-01-26T02:26:53.027Z,55.05
2019-01-26T02:29:24.705Z,55.05
2019-01-26T02:31:57.562Z,55.05
2019-01-26T02:34:30.332Z,55.08
2019-01-26T02:37:06.827Z,55.13
2019-01-26T02:39:42.064Z,55.15
2019-01-26T02:42:15.688Z,55.18
2019-01-26T02:44:47.377Z,55.15
2019-01-26T02:47:18.978Z,55.15
2019-01-26T02:49:50.610Z,55.16
2019-01-26T02:52:22.238Z,55.14
2019-01-26T02:54:53.872Z,55.16
2019-01-26T02:57:25.468Z,55.12
2019-01-26T02:59:57.134Z,55.13
2019-01-26T03:02:29.306Z,55.14
2019-01-26T03:05:01.554Z,55.14
2019-01-26T03:07:33.123Z,55.19
2019-01-26T03:10:05.771Z,55.20
2019-01-26T03:12:37.461Z,55.23
2019-01-26T03:15:12.195Z,55.27
2019-01-26T03:17:43.791Z,55.28
2019-01-26T03:20:16.538Z,55.32
2019-01-26T03:22:48.328Z,55.38
2019-01-26T03:25:21.153Z,55.47
2019-01-26T03:27:52.793Z,55.51
2019-01-26T03:30:27.188Z,55.58
2019-01-26T03:32:58.842Z,55.74
2019-01-26T03:35:30.460Z,55.75
2019-01-26T03:38:02.143Z,55.85
2019-01-26T03:40:33.940Z,55.94
2019-01-26T03:43:05.636Z,55.91
2019-01-26T03:45:37.436Z,55.96
2019-01-26T03:48:10.560Z,56.05
2019-01-26T03:50:42.230Z,56.13
2019-01-26T03:53:13.880Z,56.19
2019-01-26T03:55:45.997Z,56.30
2019-01-26T03:58:17.815Z,56.43
2019-01-26T04:00:49.444Z,56.38
2019-01-26T04:03:21.252Z,56.42
2019-01-26T04:05:52.951Z,56.50
2019-01-26T04:08:24.608Z,56.53
2019-01-26T04:10:56.817Z,56.60
2019-01-26T04:13:28.543Z,56.63
2019-01-26T04:16:00.173Z,56.71
2019-01-26T04:18:31.903Z,56.75
2019-01-26T04:21:03.517Z,56.76
2019-01-26T04:23:35.153Z,56.75
2019-01-26T04:26:07.220Z,56.74
2019-01-26T04:28:38.858Z,56.79
2019-01-26T04:31:10.487Z,56.88
2019-01-26T04:33:42.248Z,56.82
2019-01-26T04:36:13.897Z,56.81
2019-01-26T04:38:49.825Z,56.82
2019-01-26T04:41:22.730Z,56.99
2019-01-26T04:43:54.351Z,56.99
2019-01-26T04:46:26.085Z,57.03
2019-01-26T04:48:57.808Z,57.04
2019-01-26T04:51:29.416Z,57.15
2019-01-26T04:54:01.143Z,57.16
2019-01-26T04:56:32.829Z,57.17
2019-01-26T04:59:04.586Z,57.34
2019-01-26T05:01:36.169Z,57.33
2019-01-26T05:04:07.978Z,57.38
2019-01-26T05:06:39.567Z,57.44
2019-01-26T05:09:11.340Z,57.50
2019-01-26T05:11:43.596Z,57.53
2019-01-26T05:14:15.326Z,57.58
2019-01-26T05:16:46.954Z,57.59
2019-01-26T05:19:19.004Z,57.62
2019-01-26T05:21:50.664Z,57.64
2019-01-26T05:24:22.317Z,57.68
2019-01-26T05:26:53.992Z,57.65
2019-01-26T05:29:25.646Z,57.69
2019-01-26T05:31:57.412Z,57.68
2019-01-26T05:34:29.021Z,57.67
2019-01-26T05:37:00.962Z,57.65
2019-01-26T05:39:32.613Z,57.67
2019-01-26T05:42:04.289Z,57.64
2019-01-26T05:44:35.892Z,57.61
2019-01-26T05:47:09.034Z,57.72
2019-01-26T05:49:40.730Z,57.63
2019-01-26T05:52:12.482Z,57.61
2019-01-26T05:54:49.475Z,57.62
2019-01-26T05:57:22.458Z,57.64
2019-01-26T05:59:55.252Z,57.66
2019-01-26T06:02:27.387Z,57.67
2019-01-26T06:04:59.176Z,57.66
2019-01-26T06:07:31.649Z,57.63
2019-01-26T06:10:03.266Z,57.63
2019-01-26T06:12:35.204Z,57.65
2019-01-26T06:15:08.003Z,57.71
2019-01-26T06:17:39.639Z,57.75
2019-01-26T06:20:11.828Z,57.78
2019-01-26T06:22:43.813Z,57.79
2019-01-26T06:25:16.782Z,57.86
2019-01-26T06:27:48.832Z,57.86
2019-01-26T06:30:23.346Z,57.86
2019-01-26T06:32:54.976Z,57.88
2019-01-26T06:35:26.587Z,57.88
2019-01-26T06:37:58.361Z,57.91
2019-01-26T06:40:29.958Z,57.93
2019-01-26T06:43:01.652Z,57.95
2019-01-26T06:45:33.353Z,57.96
2019-01-26T06:48:05.118Z,57.99
2019-01-26T06:50:36.778Z,58.05
2019-01-26T06:53:08.519Z,58.03
2019-01-26T06:55:42.881Z,58.08
2019-01-26T06:58:14.598Z,58.10
2019-01-26T07:00:50.613Z,58.08
2019-01-26T07:03:24.821Z,58.15
2019-01-26T07:06:16.943Z,58.18
2019-01-26T07:08:53.873Z,58.23
2019-01-26T07:11:39.889Z,58.26
2019-01-26T07:14:10.023Z,58.31
2019-01-26T07:16:42.112Z,58.35
2019-01-26T07:19:13.857Z,58.42
2019-01-26T07:21:45.503Z,58.49
2019-01-26T07:24:17.241Z,58.48
2019-01-26T07:26:48.917Z,58.55
2019-01-26T07:29:20.589Z,58.50
2019-01-26T07:31:52.535Z,58.45
2019-01-26T07:34:24.187Z,58.48
2019-01-26T07:36:55.867Z,58.57
2019-01-26T07:39:27.687Z,58.60
2019-01-26T07:41:59.392Z,58.68
2019-01-26T07:44:31.008Z,58.73
2019-01-26T07:47:02.677Z,58.72
2019-01-26T07:49:34.384Z,58.75
2019-01-26T07:52:06.115Z,58.73
2019-01-26T07:54:37.859Z,58.79
2019-01-26T07:57:09.554Z,58.73
2019-01-26T07:59:41.210Z,58.75
2019-01-26T08:02:12.821Z,58.71
2019-01-26T08:04:44.536Z,58.71
2019-01-26T08:07:16.207Z,58.68
2019-01-26T08:09:48.066Z,58.71
2019-01-26T08:12:20.409Z,58.70
2019-01-26T08:14:52.175Z,58.68
2019-01-26T08:17:23.949Z,58.65
2019-01-26T08:19:55.731Z,58.61
2019-01-26T08:22:27.656Z,58.61
2019-01-26T08:24:59.550Z,58.56
2019-01-26T08:27:31.246Z,58.52
2019-01-26T08:30:03.455Z,58.46
2019-01-26T08:32:35.223Z,58.46
2019-01-26T08:35:07.236Z,58.43
2019-01-26T08:37:38.982Z,58.40
2019-01-26T08:40:12.455Z,58.39
2019-01-26T08:42:44.333Z,58.43
2019-01-26T08:45:16.870Z,58.40
2019-01-26T08:47:48.906Z,58.39
2019-01-26T08:50:29.149Z,58.36
2019-01-26T08:53:00.910Z,58.35
2019-01-26T08:55:32.572Z,58.32
2019-01-26T08:58:04.665Z,58.33
2019-01-26T09:00:36.354Z,58.30
2019-01-26T09:03:42.330Z,58.31
2019-01-26T09:06:24.504Z,58.26
2019-01-26T09:08:56.217Z,58.24
2019-01-26T09:11:29.364Z,58.25
2019-01-26T09:14:01.041Z,58.27
2019-01-26T09:16:32.772Z,58.30
2019-01-26T09:19:07.424Z,58.36
2019-01-26T09:21:39.091Z,58.37
2019-01-26T09:24:10.920Z,58.38
2019-01-26T09:26:42.827Z,58.36
2019-01-26T09:29:16.113Z,58.37
2019-01-26T09:31:47.874Z,58.35
2019-01-26T09:34:19.832Z,58.30
2019-01-26T09:36:51.511Z,58.29
2019-01-26T09:39:23.331Z,58.27
2019-01-26T09:41:55.213Z,58.28
2019-01-26T09:44:28.091Z,58.30
2019-01-26T09:46:59.762Z,58.37
2019-01-26T09:49:31.428Z,58.41
2019-01-26T09:52:07.621Z,58.44
2019-01-26T09:54:39.565Z,58.45
2019-01-26T09:57:11.225Z,58.48
2019-01-26T09:59:42.907Z,58.47
2019-01-26T10:02:14.613Z,58.49
2019-01-26T10:04:46.313Z,58.54
2019-01-26T10:07:25.921Z,58.55
2019-01-26T10:09:57.719Z,58.58
2019-01-26T10:12:32.481Z,58.60
2019-01-26T10:15:04.458Z,58.62
2019-01-26T10:17:45.444Z,58.66
2019-01-26T10:20:19.710Z,58.68
2019-01-26T10:22:51.734Z,58.74
2019-01-26T10:25:26.028Z,58.79
2019-01-26T10:27:58.019Z,58.82
2019-01-26T10:30:37.824Z,58.85
2019-01-26T10:33:13.296Z,58.89
2019-01-26T10:36:17.599Z,58.91
2019-01-26T10:39:01.623Z,58.98
2019-01-26T10:42:01.385Z,59.02
2019-01-26T10:44:34.041Z,59.02
2019-01-26T10:47:06.528Z,59.05
2019-01-26T10:49:41.300Z,59.09
2019-01-26T10:52:13.090Z,59.13
2019-01-26T10:54:45.111Z,59.09
2019-01-26T10:57:16.917Z,59.08
2019-01-26T10:59:51.401Z,59.04
2019-01-26T11:02:23.165Z,59.04
2019-01-26T11:04:57.724Z,58.99
2019-01-26T11:07:29.548Z,58.98
2019-01-26T11:10:01.446Z,59.01
2019-01-26T11:12:33.729Z,58.96
2019-01-26T11:15:06.384Z,58.91
2019-01-26T11:17:39.930Z,58.90
2019-01-26T11:20:12.486Z,58.87
2019-01-26T11:22:45.893Z,58.82
2019-01-26T11:25:17.904Z,58.78
2019-01-26T11:27:50.837Z,58.77
2019-01-26T11:30:26.185Z,58.76
2019-01-26T11:32:58.135Z,58.78
2019-01-26T11:35:29.885Z,58.84
2019-01-26T11:38:01.662Z,58.94
2019-01-26T11:40:36.810Z,58.99
2019-01-26T11:43:08.784Z,58.99
2019-01-26T11:46:02.263Z,59.01
2019-01-26T11:48:37.352Z,59.03
2019-01-26T11:51:27.874Z,59.05
2019-01-26T11:53:59.625Z,59.04
2019-01-26T11:56:50.313Z,59.09
2019-01-26T11:59:22.187Z,59.17
2019-01-26T12:02:00.784Z,59.21
2019-01-26T12:04:52.890Z,59.22
2019-01-26T12:07:34.863Z,59.23
2019-01-26T12:10:10.384Z,59.26
2019-01-26T12:12:42.850Z,59.33
2019-01-26T12:15:16.981Z,59.37
2019-01-26T12:17:48.940Z,59.42
2019-01-26T12:20:21.544Z,59.44
2019-01-26T12:22:53.661Z,59.51
2019-01-26T12:25:25.509Z,59.55
2019-01-26T12:27:57.628Z,59.55
2019-01-26T12:30:31.097Z,59.61
2019-01-26T12:33:02.779Z,59.64
2019-01-26T12:35:34.415Z,59.72
2019-01-26T12:38:08.161Z,59.78
2019-01-26T12:40:39.988Z,59.76
2019-01-26T12:43:12.086Z,59.72
2019-01-26T12:45:47.448Z,59.71
2019-01-26T12:48:19.054Z,59.69
2019-01-26T12:50:50.716Z,59.71
2019-01-26T12:53:26.114Z,59.72
2019-01-26T12:55:57.839Z,59.72
2019-01-26T12:58:29.684Z,59.72
2019-01-26T13:01:02.639Z,59.69
2019-01-26T13:03:35.023Z,59.73
2019-01-26T13:06:07.350Z,59.70
2019-01-26T13:08:39.827Z,59.73
2019-01-26T13:11:29.462Z,59.75
2019-01-26T13:14:01.561Z,59.79
2019-01-26T13:16:33.440Z,59.86
2019-01-26T13:19:05.257Z,59.84
2019-01-26T13:21:38.181Z,59.84
2019-01-26T13:24:11.010Z,59.82
2019-01-26T13:26:44.056Z,59.83
2019-01-26T13:29:15.820Z,59.86
2019-01-26T13:31:47.758Z,59.93
2019-01-26T13:34:19.406Z,59.93
2019-01-26T13:36:51.189Z,59.96
2019-01-26T13:39:22.919Z,59.94
2019-01-26T13:41:55.029Z,59.96
2019-01-26T13:44:26.809Z,60.00
2019-01-26T13:46:58.737Z,59.99
2019-01-26T13:49:30.748Z,60.03
2019-01-26T13:52:02.407Z,60.00
2019-01-26T13:54:35.361Z,59.99
2019-01-26T13:57:08.304Z,59.94
2019-01-26T13:59:40.275Z,59.92
2019-01-26T14:02:13.335Z,59.90
2019-01-26T14:04:45.540Z,59.92
2019-01-26T14:07:17.547Z,59.92
2019-01-26T14:09:50.826Z,59.96
2019-01-26T14:12:23.357Z,59.98
2019-01-26T14:14:55.050Z,59.94
2019-01-26T14:17:26.759Z,59.86
2019-01-26T14:19:58.737Z,59.81
2019-01-26T14:22:30.670Z,59.78
2019-01-26T14:25:02.360Z,59.73
2019-01-26T14:27:34.032Z,59.71
2019-01-26T14:30:10.768Z,59.65
2019-01-26T14:32:42.667Z,59.61
2019-01-26T14:35:14.505Z,59.60
2019-01-26T14:37:46.328Z,59.60
2019-01-26T14:40:18.313Z,59.61
2019-01-26T14:42:54.342Z,59.61
2019-01-26T14:45:23.841Z,59.60
2019-01-26T14:47:55.578Z,59.56
2019-01-26T14:50:27.447Z,59.55
2019-01-26T14:52:59.186Z,59.52
2019-01-26T14:55:31.174Z,59.54
2019-01-26T14:58:02.853Z,59.55
2019-01-26T15:00:35.519Z,59.54
2019-01-26T15:03:07.275Z,59.56
2019-01-26T15:05:39.068Z,59.64
2019-01-26T15:08:11.146Z,59.69
2019-01-26T15:10:43.153Z,59.74
2019-01-26T15:13:15.620Z,59.76
2019-01-26T15:15:47.383Z,59.76
2019-01-26T15:18:19.213Z,59.81
2019-01-26T15:20:51.143Z,59.83
2019-01-26T15:23:23.163Z,59.83
2019-01-26T15:25:54.922Z,59.83
2019-01-26T15:28:26.752Z,59.86
2019-01-26T15:30:58.531Z,59.88
2019-01-26T15:33:30.287Z,59.90
2019-01-26T15:36:08.687Z,59.95
2019-01-26T15:38:35.481Z,59.99
2019-01-26T15:41:09.385Z,59.99
2019-01-26T15:43:41.370Z,60.01
2019-01-26T15:46:13.274Z,60.08
2019-01-26T15:48:45.287Z,60.14
2019-01-26T15:51:17.207Z,60.20
2019-01-26T15:53:48.914Z,60.24
2019-01-26T15:56:20.728Z,60.28
2019-01-26T15:58:52.818Z,60.29
2019-01-26T16:01:24.658Z,60.34
2019-01-26T16:03:56.523Z,60.34
2019-01-26T16:06:28.531Z,60.34
2019-01-26T16:09:00.394Z,60.37
2019-01-26T16:11:33.030Z,60.39
2019-01-26T16:14:05.229Z,60.42
2019-01-26T16:16:37.429Z,60.44
2019-01-26T16:19:09.231Z,60.44
2019-01-26T16:21:42.613Z,60.51
2019-01-26T16:24:15.963Z,60.58
2019-01-26T16:26:47.802Z,60.60
2019-01-26T16:29:19.765Z,60.59
2019-01-26T16:31:53.585Z,60.66
2019-01-26T16:34:30.667Z,60.72
2019-01-26T16:37:04.825Z,60.74
2019-01-26T16:39:39.799Z,60.77
2019-01-26T16:42:11.570Z,60.75
2019-01-26T16:44:43.495Z,60.82
2019-01-26T16:47:15.449Z,60.94
2019-01-26T16:49:47.106Z,60.97
2019-01-26T16:52:19.148Z,60.97
2019-01-26T16:54:50.879Z,60.95
2019-01-26T16:57:22.658Z,60.93
2019-01-26T16:59:54.606Z,60.97
2019-01-26T17:02:26.733Z,61.00
2019-01-26T17:04:58.518Z,61.03
2019-01-26T17:07:31.185Z,61.03
2019-01-26T17:10:03.069Z,61.10
2019-01-26T17:12:35.480Z,61.16
2019-01-26T17:15:08.973Z,61.21
2019-01-26T17:17:41.131Z,61.22
2019-01-26T17:20:20.656Z,61.22
2019-01-26T17:22:52.438Z,61.28
2019-01-26T17:25:24.150Z,61.31
2019-01-26T17:27:55.885Z,61.29
2019-01-26T17:30:31.095Z,61.34
2019-01-26T17:33:07.359Z,61.36
2019-01-26T17:35:36.320Z,61.38
2019-01-26T17:38:08.256Z,61.37
2019-01-26T17:40:39.936Z,61.30
2019-01-26T17:43:11.599Z,61.26
2019-01-26T17:45:43.310Z,61.24
2019-01-26T17:48:15.771Z,61.15
2019-01-26T17:50:50.306Z,61.08
2019-01-26T17:53:23.487Z,61.03
2019-01-26T17:55:56.275Z,61.07
2019-01-26T17:58:27.929Z,61.03
2019-01-26T18:01:00.555Z,60.99
2019-01-26T18:03:32.398Z,60.94
2019-01-26T18:06:04.123Z,60.92
2019-01-26T18:08:35.927Z,60.87
2019-01-26T18:11:07.568Z,60.87
2019-01-26T18:13:39.540Z,60.83
2019-01-26T18:16:11.428Z,60.80
2019-01-26T18:18:43.680Z,60.77
2019-01-26T18:21:15.575Z,60.78
2019-01-26T18:23:47.427Z,60.80
2019-01-26T18:26:19.112Z,60.93
2019-01-26T18:28:51.110Z,61.00
2019-01-26T18:31:23.090Z,61.05
2019-01-26T18:33:54.813Z,61.11
2019-01-26T18:36:26.645Z,61.19
2019-01-26T18:38:58.449Z,61.25
2019-01-26T18:41:30.168Z,61.28
2019-01-26T18:44:01.967Z,61.31
2019-01-26T18:46:33.679Z,61.33
2019-01-26T18:49:05.494Z,61.38
2019-01-26T18:51:37.510Z,61.40
2019-01-26T18:54:09.414Z,61.39
2019-01-26T18:56:41.075Z,61.41
2019-01-26T18:59:12.735Z,61.42
2019-01-26T19:01:44.552Z,61.39
2019-01-26T19:04:28.261Z,61.42
2019-01-26T19:07:00.158Z,61.36
2019-01-26T19:09:31.847Z,61.36
2019-01-26T19:12:03.881Z,61.37
2019-01-26T19:14:35.716Z,61.36
2019-01-26T19:17:07.883Z,61.41
2019-01-26T19:19:39.539Z,61.37
2019-01-26T19:22:11.458Z,61.40
2019-01-26T19:24:43.144Z,61.42
2019-01-26T19:27:14.840Z,61.41
2019-01-26T19:29:46.505Z,61.41
2019-01-26T19:32:18.228Z,61.40
2019-01-26T19:34:49.971Z,61.39
2019-01-26T19:37:26.823Z,61.35
2019-01-26T19:39:58.642Z,61.31
2019-01-26T19:42:31.809Z,61.21
2019-01-26T19:45:03.562Z,61.16
2019-01-26T19:47:35.683Z,61.13
2019-01-26T19:50:08.475Z,61.12
2019-01-26T19:52:40.351Z,61.15
2019-01-26T19:55:12.212Z,61.14
2019-01-26T19:57:44.006Z,61.14
2019-01-26T20:00:16.530Z,61.14
2019-01-26T20:02:48.336Z,61.16
2019-01-26T20:05:22.371Z,61.22
2019-01-26T20:07:54.351Z,61.27
2019-01-26T20:10:26.244Z,61.33
2019-01-26T20:12:58.111Z,61.42
2019-01-26T20:15:29.881Z,61.48
2019-01-26T20:18:01.538Z,61.58
2019-01-26T20:20:35.902Z,61.64
2019-01-26T20:23:07.736Z,61.66
2019-01-26T20:25:39.604Z,61.67
2019-01-26T20:28:12.161Z,61.68
2019-01-26T20:30:43.951Z,61.68
2019-01-26T20:33:16.983Z,61.68
2019-01-26T20:35:48.630Z,61.66
2019-01-26T20:38:20.416Z,61.63
2019-01-26T20:40:52.734Z,61.61
2019-01-26T20:43:24.587Z,61.61
2019-01-26T20:45:56.313Z,61.64
2019-01-26T20:48:28.054Z,61.63
2019-01-26T20:50:59.809Z,61.65
2019-01-26T20:53:32.728Z,61.67
2019-01-26T20:56:06.498Z,61.67
2019-01-26T20:58:38.216Z,61.70
2019-01-26T21:01:10.208Z,61.72
2019-01-26T21:03:41.943Z,61.72
2019-01-26T21:06:14.020Z,61.70
2019-01-26T21:08:45.873Z,61.72
2019-01-26T21:11:17.889Z,61.75
2019-01-26T21:13:49.934Z,61.76
2019-01-26T21:16:21.727Z,61.78
2019-01-26T21:18:53.679Z,61.76
2019-01-26T21:21:31.963Z,61.74
2019-01-26T21:24:00.454Z,61.78
2019-01-26T21:26:32.430Z,61.76
2019-01-26T21:29:04.417Z,61.77
2019-01-26T21:31:36.569Z,61.78
2019-01-26T21:34:08.552Z,61.74
2019-01-26T21:36:40.346Z,61.69
2019-01-26T21:39:12.054Z,61.69
2019-01-26T21:41:44.126Z,61.68
2019-01-26T21:44:19.752Z,61.67
2019-01-26T21:46:52.549Z,61.64
2019-01-26T21:49:24.344Z,61.62
2019-01-26T21:51:56.017Z,61.62
2019-01-26T21:54:27.767Z,61.64
2019-01-26T21:56:59.570Z,61.64
2019-01-26T21:59:31.221Z,61.62
2019-01-26T22:02:03.180Z,61.58
2019-01-26T22:04:35.031Z,61.54
2019-01-26T22:07:07.201Z,61.52
2019-01-26T22:09:38.879Z,61.48
2019-01-26T22:12:10.757Z,61.45
2019-01-26T22:14:42.743Z,61.40
2019-01-26T22:17:14.693Z,61.31
2019-01-26T22:19:46.363Z,61.28
2019-01-26T22:22:18.186Z,61.25
2019-01-26T22:24:50.120Z,61.20
2019-01-26T22:27:21.941Z,61.17
2019-01-26T22:29:54.802Z,61.18
2019-01-26T22:32:26.619Z,61.17
2019-01-26T22:34:58.349Z,61.18
2019-01-26T22:37:30.177Z,61.18
2019-01-26T22:40:01.826Z,61.20
2019-01-26T22:42:35.085Z,61.25
2019-01-26T22:45:08.239Z,61.26
2019-01-26T22:47:39.851Z,61.26
2019-01-26T22:50:13.852Z,61.26
2019-01-26T22:52:45.711Z,61.21
2019-01-26T22:55:18.562Z,61.17
2019-01-26T22:57:55.940Z,61.11
2019-01-26T23:01:28.231Z,61.07
2019-01-26T23:04:50.895Z,61.06
2019-01-26T23:07:51.838Z,61.05
2019-01-26T23:11:38.271Z,61.02
2019-01-26T23:15:25.885Z,61.02
2019-01-26T23:18:34.833Z,60.95
2019-01-26T23:22:33.749Z,60.88
2019-01-26T23:25:47.746Z,60.87
2019-01-26T23:28:53.494Z,60.82
2019-01-26T23:31:25.201Z,60.84
2019-01-26T23:33:58.006Z,60.85
2019-01-26T23:36:29.758Z,60.86
2019-01-26T23:39:02.530Z,60.83
2019-01-26T23:41:34.583Z,60.82
2019-01-26T23:44:08.028Z,60.74
2019-01-26T23:46:39.850Z,60.68
2019-01-26T23:49:11.455Z,60.63
2019-01-26T23:51:43.193Z,60.59
2019-01-26T23:54:14.924Z,60.57
2019-01-26T23:56:46.799Z,60.56
2019-01-26T23:59:18.462Z,60.55
